Home   Weather   USA   Lapeer   Past weeks
Flag for USA

Past Weather in Lapeer, Michigan, USA — Yesterday and Last 2 Weeks

Currently: 52 °F. Clear. (Weather station: Lapeer Meadows Mobile Home Park, USA). See more current weather

Past Weather in Lapeer — Graph

°F

Lapeer Temperature Yesterday

Maximum temperature yesterday: 73 °F (at 3:55 pm)
Minimum temperature yesterday: 42 °F (at 5:55 am)
Average temperature yesterday: 59 °F

High & Low Weather Summary for the Past Weeks

 TemperatureHumidityPressure
High89 °F (Jun 6, 4:35 pm)100% (Jun 2, 5:55 am)30.17 "Hg (Jun 2, 5:55 am)
Low42 °F (Jun 16, 5:55 am)24% (Jun 16, 4:55 pm)29.80 "Hg (Jun 11, 6:35 pm)
Average71 °F67%29.96 "Hg
* Reported Jun 2 12:35 am — Jun 17 12:15 am, Lapeer. Weather by CustomWeather, © 2021

Note: Actual official high and low records may vary slightly from our data, if they occured in-between our weather recording intervals... More about our weather records

Lapeer Weather History for the Previous 24 Hours

Scroll right to see more
 ConditionsComfort  
Time TempWeatherWind HumidityBarometerVisibility
12:15 am
Thu, Jun 17
54 °FClear.No wind66%30.05 "Hg10 mi
11:55 pm
Wed, Jun 16
54 °FClear.No wind65%30.05 "Hg10 mi
11:35 pm56 °FClear.No wind60%30.05 "Hg10 mi
10:35 pm58 °FClear.3 mph57%30.05 "Hg10 mi
10:15 pm60 °FClear.No wind55%30.05 "Hg10 mi
9:55 pm60 °FClear.No wind54%30.04 "Hg10 mi
9:35 pm62 °FClear.5 mph51%30.04 "Hg10 mi
9:15 pm63 °FClear.6 mph47%30.04 "Hg10 mi
8:55 pm62 °FSunny.No wind54%30.04 "Hg10 mi
8:35 pm67 °FSunny.No wind46%30.04 "Hg10 mi
8:15 pm71 °FSunny.No wind28%30.04 "Hg10 mi
7:55 pm72 °FSunny.No wind26%30.04 "Hg10 mi
7:35 pm71 °FSunny.No wind27%30.04 "Hg10 mi
7:15 pm71 °FSunny.No wind26%30.05 "Hg10 mi
6:55 pm72 °FSunny.3 mph26%30.05 "Hg10 mi
6:35 pm72 °FSunny.6 mph25%30.05 "Hg10 mi
6:15 pm72 °FSunny.5 mph24%30.06 "Hg10 mi
5:55 pm71 °FSunny.8 mph27%30.06 "Hg10 mi
5:35 pm72 °FSunny.6 mph27%30.06 "Hg10 mi
5:15 pm72 °FSunny.3 mph25%30.07 "Hg10 mi
4:55 pm72 °FSunny.6 mph24%30.07 "Hg10 mi
4:35 pm72 °FSunny.7 mph25%30.07 "Hg10 mi
4:15 pm71 °FSunny.6 mph26%30.08 "Hg10 mi
3:55 pm73 °FSunny.7 mph26%30.08 "Hg10 mi
3:35 pm72 °FSunny.10 mph26%30.08 "Hg10 mi
2:35 pm71 °FSunny.6 mph29%30.10 "Hg10 mi
2:15 pm71 °FSunny.10 mph28%30.10 "Hg10 mi
1:55 pm71 °FSunny.6 mph28%30.11 "Hg10 mi
1:35 pm70 °FSunny.8 mph30%30.12 "Hg10 mi
1:15 pm70 °FSunny.8 mph29%30.12 "Hg10 mi
12:55 pm70 °FSunny.5 mph28%30.12 "Hg10 mi
12:35 pm69 °FSunny.9 mph32%30.12 "Hg10 mi
12:15 pm68 °FSunny.No wind30%30.12 "Hg10 mi
11:55 am67 °FSunny.6 mph33%30.13 "Hg10 mi
11:35 am66 °FSunny.No wind35%30.14 "Hg10 mi
11:15 am67 °FSunny.6 mph36%30.14 "Hg10 mi
10:55 am65 °FSunny.No wind37%30.14 "Hg10 mi
10:35 am64 °FSunny.No wind43%30.14 "Hg10 mi
10:15 am64 °FSunny.No wind43%30.14 "Hg10 mi
9:55 am63 °FSunny.No wind51%30.13 "Hg10 mi
9:35 am62 °FSunny.No wind50%30.14 "Hg10 mi
9:15 am61 °FSunny.No wind56%30.12 "Hg10 mi
8:55 am60 °FSunny.No wind62%30.13 "Hg10 mi
8:35 am58 °FSunny.No wind68%30.11 "Hg10 mi
8:15 am55 °FSunny.No wind74%30.11 "Hg10 mi
7:55 am53 °FSunny.No wind84%30.12 "Hg10 mi
7:35 am50 °FSunny.No wind90%30.11 "Hg10 mi
7:15 am47 °FSunny.No wind97%30.11 "Hg10 mi
6:35 am43 °FSunny.No wind100%30.11 "Hg10 mi
6:15 am42 °FSunny.No wind100%30.11 "Hg10 mi
5:55 am42 °FSunny.No wind100%30.10 "Hg10 mi
5:35 am42 °FClear.No wind100%30.10 "Hg10 mi
5:15 am43 °FClear.No wind100%30.10 "Hg10 mi
4:55 am44 °FClear.No wind100%30.09 "Hg10 mi
4:35 am44 °FQuite cool.No wind100%30.08 "HgN/A
4:15 am43 °FClear.No wind99%30.09 "Hg10 mi
3:55 am44 °FClear.No wind99%30.09 "Hg10 mi
3:35 am44 °FClear.No wind100%30.08 "Hg10 mi
3:15 am45 °FClear.No wind99%30.08 "Hg10 mi
2:55 am45 °FClear.No wind98%30.08 "Hg10 mi
2:35 am45 °FClear.No wind97%30.08 "Hg10 mi
2:15 am45 °FClear.No wind97%30.08 "Hg10 mi
1:55 am45 °FClear.No wind97%30.08 "Hg10 mi
1:35 am47 °FClear.No wind93%30.08 "Hg10 mi
1:15 am46 °FClear.No wind93%30.08 "Hg10 mi
Weather by CustomWeather, © 2021

See weather overview